sensor_id;sensor_type;location;lat;lon;timestamp;P1;durP1;ratioP1;P2;durP2;ratioP2
70825;SDS011;58446;41.490;22.098;2023-03-20T00:02:49;25.45;;;15.15;;
70825;SDS011;58446;41.490;22.098;2023-03-20T00:05:18;21.77;;;13.67;;
70825;SDS011;58446;41.490;22.098;2023-03-20T00:07:46;24.50;;;14.75;;
70825;SDS011;58446;41.490;22.098;2023-03-20T00:10:14;25.73;;;16.02;;
70825;SDS011;58446;41.490;22.098;2023-03-20T00:12:43;26.20;;;15.23;;
70825;SDS011;58446;41.490;22.098;2023-03-20T00:15:27;23.77;;;15.30;;
70825;SDS011;58446;41.490;22.098;2023-03-20T00:17:56;22.73;;;15.23;;
70825;SDS011;58446;41.490;22.098;2023-03-20T00:20:22;25.33;;;15.13;;
70825;SDS011;58446;41.490;22.098;2023-03-20T00:22:48;22.55;;;13.45;;
70825;SDS011;58446;41.490;22.098;2023-03-20T00:25:17;20.35;;;13.32;;
70825;SDS011;58446;41.490;22.098;2023-03-20T00:27:45;22.33;;;13.77;;
70825;SDS011;58446;41.490;22.098;2023-03-20T00:32:53;25.55;;;15.40;;
70825;SDS011;58446;41.490;22.098;2023-03-20T00:35:24;23.63;;;15.80;;
70825;SDS011;58446;41.490;22.098;2023-03-20T00:37:52;21.90;;;14.52;;
70825;SDS011;58446;41.490;22.098;2023-03-20T00:40:19;24.97;;;15.23;;
70825;SDS011;58446;41.490;22.098;2023-03-20T00:42:46;24.00;;;15.65;;
70825;SDS011;58446;41.490;22.098;2023-03-20T00:45:16;23.40;;;14.95;;
70825;SDS011;58446;41.490;22.098;2023-03-20T00:47:46;23.02;;;14.98;;
70825;SDS011;58446;41.490;22.098;2023-03-20T00:50:13;22.38;;;14.73;;
70825;SDS011;58446;41.490;22.098;2023-03-20T00:52:44;24.50;;;15.23;;
70825;SDS011;58446;41.490;22.098;2023-03-20T00:55:10;24.10;;;14.60;;
70825;SDS011;58446;41.490;22.098;2023-03-20T00:57:41;25.15;;;15.40;;
70825;SDS011;58446;41.490;22.098;2023-03-20T01:02:48;25.85;;;15.23;;
70825;SDS011;58446;41.490;22.098;2023-03-20T01:05:18;21.20;;;14.82;;
70825;SDS011;58446;41.490;22.098;2023-03-20T01:07:45;22.90;;;14.77;;
70825;SDS011;58446;41.490;22.098;2023-03-20T01:10:11;24.15;;;15.23;;
70825;SDS011;58446;41.490;22.098;2023-03-20T01:12:38;22.87;;;14.73;;
70825;SDS011;58446;41.490;22.098;2023-03-20T01:15:09;21.25;;;13.93;;
70825;SDS011;58446;41.490;22.098;2023-03-20T01:17:41;23.52;;;15.98;;
70825;SDS011;58446;41.490;22.098;2023-03-20T01:20:18;25.02;;;15.50;;
70825;SDS011;58446;41.490;22.098;2023-03-20T01:22:47;25.47;;;16.40;;
70825;SDS011;58446;41.490;22.098;2023-03-20T01:25:13;26.67;;;17.35;;
70825;SDS011;58446;41.490;22.098;2023-03-20T01:27:38;23.08;;;15.60;;
70825;SDS011;58446;41.490;22.098;2023-03-20T01:30:26;26.57;;;16.07;;
70825;SDS011;58446;41.490;22.098;2023-03-20T01:32:55;23.48;;;16.27;;
70825;SDS011;58446;41.490;22.098;2023-03-20T01:35:22;24.80;;;15.00;;
70825;SDS011;58446;41.490;22.098;2023-03-20T01:37:51;26.63;;;16.33;;
70825;SDS011;58446;41.490;22.098;2023-03-20T01:42:57;23.97;;;14.57;;
70825;SDS011;58446;41.490;22.098;2023-03-20T01:45:25;35.35;;;19.23;;
70825;SDS011;58446;41.490;22.098;2023-03-20T01:47:58;33.30;;;19.05;;
70825;SDS011;58446;41.490;22.098;2023-03-20T01:50:28;28.90;;;17.53;;
70825;SDS011;58446;41.490;22.098;2023-03-20T01:53:01;23.83;;;15.30;;
70825;SDS011;58446;41.490;22.098;2023-03-20T01:55:33;27.42;;;15.85;;
70825;SDS011;58446;41.490;22.098;2023-03-20T01:58:02;26.33;;;16.23;;
70825;SDS011;58446;41.490;22.098;2023-03-20T02:00:31;26.35;;;16.08;;
70825;SDS011;58446;41.490;22.098;2023-03-20T02:02:58;26.25;;;16.55;;
70825;SDS011;58446;41.490;22.098;2023-03-20T02:05:24;25.33;;;15.10;;
70825;SDS011;58446;41.490;22.098;2023-03-20T02:08:10;25.67;;;15.77;;
70825;SDS011;58446;41.490;22.098;2023-03-20T02:10:46;23.98;;;14.82;;
70825;SDS011;58446;41.490;22.098;2023-03-20T02:13:14;25.35;;;15.52;;
70825;SDS011;58446;41.490;22.098;2023-03-20T02:18:30;27.07;;;15.87;;
70825;SDS011;58446;41.490;22.098;2023-03-20T02:29:19;31.15;;;18.52;;
70825;SDS011;58446;41.490;22.098;2023-03-20T02:34:55;28.92;;;17.67;;
70825;SDS011;58446;41.490;22.098;2023-03-20T02:37:53;29.20;;;19.13;;
70825;SDS011;58446;41.490;22.098;2023-03-20T02:40:40;27.33;;;16.38;;
70825;SDS011;58446;41.490;22.098;2023-03-20T02:46:02;28.03;;;18.37;;
70825;SDS011;58446;41.490;22.098;2023-03-20T02:48:45;30.35;;;18.73;;
70825;SDS011;58446;41.490;22.098;2023-03-20T02:54:32;28.27;;;16.60;;
70825;SDS011;58446;41.490;22.098;2023-03-20T02:56:46;30.13;;;19.10;;
70825;SDS011;58446;41.490;22.098;2023-03-20T03:01:50;35.13;;;21.77;;
70825;SDS011;58446;41.490;22.098;2023-03-20T03:04:22;35.10;;;20.05;;
70825;SDS011;58446;41.490;22.098;2023-03-20T03:06:53;34.57;;;20.30;;
70825;SDS011;58446;41.490;22.098;2023-03-20T03:09:30;33.58;;;20.45;;
70825;SDS011;58446;41.490;22.098;2023-03-20T03:12:02;27.73;;;17.85;;
70825;SDS011;58446;41.490;22.098;2023-03-20T03:14:51;32.10;;;18.85;;
70825;SDS011;58446;41.490;22.098;2023-03-20T03:17:22;29.27;;;18.42;;
70825;SDS011;58446;41.490;22.098;2023-03-20T03:19:52;30.10;;;17.80;;
70825;SDS011;58446;41.490;22.098;2023-03-20T03:22:23;27.42;;;17.05;;
70825;SDS011;58446;41.490;22.098;2023-03-20T03:24:51;27.77;;;17.92;;
70825;SDS011;58446;41.490;22.098;2023-03-20T03:27:28;29.77;;;18.83;;
70825;SDS011;58446;41.490;22.098;2023-03-20T03:30:05;30.50;;;18.70;;
70825;SDS011;58446;41.490;22.098;2023-03-20T03:32:42;25.47;;;16.60;;
70825;SDS011;58446;41.490;22.098;2023-03-20T03:35:16;44.25;;;25.58;;
70825;SDS011;58446;41.490;22.098;2023-03-20T03:42:52;32.30;;;18.40;;
70825;SDS011;58446;41.490;22.098;2023-03-20T03:47:59;25.17;;;14.43;;
70825;SDS011;58446;41.490;22.098;2023-03-20T03:50:39;26.08;;;16.15;;
70825;SDS011;58446;41.490;22.098;2023-03-20T03:53:12;28.87;;;16.53;;
70825;SDS011;58446;41.490;22.098;2023-03-20T03:55:43;25.42;;;15.82;;
70825;SDS011;58446;41.490;22.098;2023-03-20T03:58:57;22.25;;;13.93;;
70825;SDS011;58446;41.490;22.098;2023-03-20T04:01:06;24.48;;;13.30;;
70825;SDS011;58446;41.490;22.098;2023-03-20T04:03:38;21.38;;;14.65;;
70825;SDS011;58446;41.490;22.098;2023-03-20T04:06:08;22.70;;;14.83;;
70825;SDS011;58446;41.490;22.098;2023-03-20T04:08:39;24.52;;;14.73;;
70825;SDS011;58446;41.490;22.098;2023-03-20T04:11:05;24.55;;;16.33;;
70825;SDS011;58446;41.490;22.098;2023-03-20T04:13:33;25.05;;;14.77;;
70825;SDS011;58446;41.490;22.098;2023-03-20T04:15:58;24.00;;;14.87;;
70825;SDS011;58446;41.490;22.098;2023-03-20T04:18:24;23.70;;;15.23;;
70825;SDS011;58446;41.490;22.098;2023-03-20T04:20:50;23.40;;;15.07;;
70825;SDS011;58446;41.490;22.098;2023-03-20T04:23:16;24.13;;;14.85;;
70825;SDS011;58446;41.490;22.098;2023-03-20T04:25:42;24.77;;;15.57;;
70825;SDS011;58446;41.490;22.098;2023-03-20T04:28:07;23.92;;;13.90;;
70825;SDS011;58446;41.490;22.098;2023-03-20T04:30:35;23.02;;;15.60;;
70825;SDS011;58446;41.490;22.098;2023-03-20T04:33:00;22.27;;;15.40;;
70825;SDS011;58446;41.490;22.098;2023-03-20T04:35:26;28.43;;;16.27;;
70825;SDS011;58446;41.490;22.098;2023-03-20T04:37:51;26.03;;;15.67;;
70825;SDS011;58446;41.490;22.098;2023-03-20T04:40:17;22.17;;;15.47;;
70825;SDS011;58446;41.490;22.098;2023-03-20T04:42:43;23.40;;;14.70;;
70825;SDS011;58446;41.490;22.098;2023-03-20T04:45:09;20.20;;;13.82;;
70825;SDS011;58446;41.490;22.098;2023-03-20T04:47:34;21.00;;;14.27;;
70825;SDS011;58446;41.490;22.098;2023-03-20T04:50:00;23.60;;;14.27;;
70825;SDS011;58446;41.490;22.098;2023-03-20T04:52:26;23.50;;;14.13;;
70825;SDS011;58446;41.490;22.098;2023-03-20T04:54:51;21.45;;;14.13;;
70825;SDS011;58446;41.490;22.098;2023-03-20T04:57:17;19.10;;;13.07;;
70825;SDS011;58446;41.490;22.098;2023-03-20T04:59:42;20.70;;;11.43;;
70825;SDS011;58446;41.490;22.098;2023-03-20T05:02:08;20.85;;;13.40;;
70825;SDS011;58446;41.490;22.098;2023-03-20T05:04:39;21.50;;;13.50;;
70825;SDS011;58446;41.490;22.098;2023-03-20T05:07:06;21.00;;;13.48;;
70825;SDS011;58446;41.490;22.098;2023-03-20T05:09:31;21.33;;;14.50;;
70825;SDS011;58446;41.490;22.098;2023-03-20T05:11:57;27.13;;;16.27;;
70825;SDS011;58446;41.490;22.098;2023-03-20T05:14:22;21.83;;;14.00;;
70825;SDS011;58446;41.490;22.098;2023-03-20T05:16:48;23.53;;;14.23;;
70825;SDS011;58446;41.490;22.098;2023-03-20T05:19:14;24.08;;;15.70;;
70825;SDS011;58446;41.490;22.098;2023-03-20T05:21:39;26.10;;;16.80;;
70825;SDS011;58446;41.490;22.098;2023-03-20T05:24:05;26.65;;;16.10;;
70825;SDS011;58446;41.490;22.098;2023-03-20T05:26:31;26.00;;;16.77;;
70825;SDS011;58446;41.490;22.098;2023-03-20T05:28:57;21.65;;;15.18;;
70825;SDS011;58446;41.490;22.098;2023-03-20T05:31:22;25.70;;;15.93;;
70825;SDS011;58446;41.490;22.098;2023-03-20T05:33:48;27.08;;;16.33;;
70825;SDS011;58446;41.490;22.098;2023-03-20T05:36:14;25.43;;;15.83;;
70825;SDS011;58446;41.490;22.098;2023-03-20T05:38:40;27.80;;;17.20;;
70825;SDS011;58446;41.490;22.098;2023-03-20T05:41:06;29.38;;;17.92;;
70825;SDS011;58446;41.490;22.098;2023-03-20T05:43:31;23.90;;;15.17;;
70825;SDS011;58446;41.490;22.098;2023-03-20T05:45:57;25.80;;;15.43;;
70825;SDS011;58446;41.490;22.098;2023-03-20T05:48:22;25.70;;;16.55;;
70825;SDS011;58446;41.490;22.098;2023-03-20T05:50:48;24.47;;;15.83;;
70825;SDS011;58446;41.490;22.098;2023-03-20T05:53:14;22.80;;;14.35;;
70825;SDS011;58446;41.490;22.098;2023-03-20T05:55:40;22.52;;;14.02;;
70825;SDS011;58446;41.490;22.098;2023-03-20T05:58:10;23.13;;;16.08;;
70825;SDS011;58446;41.490;22.098;2023-03-20T06:00:36;24.80;;;16.97;;
70825;SDS011;58446;41.490;22.098;2023-03-20T06:03:02;24.55;;;16.10;;
70825;SDS011;58446;41.490;22.098;2023-03-20T06:05:28;21.45;;;14.57;;
70825;SDS011;58446;41.490;22.098;2023-03-20T06:07:54;22.27;;;13.63;;
70825;SDS011;58446;41.490;22.098;2023-03-20T06:10:20;22.92;;;14.73;;
70825;SDS011;58446;41.490;22.098;2023-03-20T06:12:46;20.75;;;14.32;;
70825;SDS011;58446;41.490;22.098;2023-03-20T06:15:11;17.67;;;12.33;;
70825;SDS011;58446;41.490;22.098;2023-03-20T06:17:37;17.45;;;11.90;;
70825;SDS011;58446;41.490;22.098;2023-03-20T06:20:03;19.10;;;11.27;;
70825;SDS011;58446;41.490;22.098;2023-03-20T06:22:29;18.55;;;11.23;;
70825;SDS011;58446;41.490;22.098;2023-03-20T06:24:55;15.87;;;10.53;;
70825;SDS011;58446;41.490;22.098;2023-03-20T06:27:21;14.63;;;9.88;;
70825;SDS011;58446;41.490;22.098;2023-03-20T06:29:47;18.65;;;10.32;;
70825;SDS011;58446;41.490;22.098;2023-03-20T06:32:12;15.57;;;10.20;;
70825;SDS011;58446;41.490;22.098;2023-03-20T06:34:39;15.45;;;10.43;;
70825;SDS011;58446;41.490;22.098;2023-03-20T06:37:05;15.25;;;10.52;;
70825;SDS011;58446;41.490;22.098;2023-03-20T06:39:31;16.07;;;10.33;;
70825;SDS011;58446;41.490;22.098;2023-03-20T06:41:56;17.23;;;10.93;;
70825;SDS011;58446;41.490;22.098;2023-03-20T06:44:22;17.63;;;11.27;;
70825;SDS011;58446;41.490;22.098;2023-03-20T06:46:48;16.02;;;11.57;;
70825;SDS011;58446;41.490;22.098;2023-03-20T06:49:14;17.85;;;12.20;;
70825;SDS011;58446;41.490;22.098;2023-03-20T06:51:41;19.23;;;12.07;;
70825;SDS011;58446;41.490;22.098;2023-03-20T06:54:06;22.63;;;12.73;;
70825;SDS011;58446;41.490;22.098;2023-03-20T06:56:32;17.55;;;12.75;;
70825;SDS011;58446;41.490;22.098;2023-03-20T06:58:58;18.67;;;11.30;;
70825;SDS011;58446;41.490;22.098;2023-03-20T07:01:24;20.00;;;13.77;;
70825;SDS011;58446;41.490;22.098;2023-03-20T07:03:50;22.37;;;13.47;;
70825;SDS011;58446;41.490;22.098;2023-03-20T07:06:15;16.38;;;11.55;;
70825;SDS011;58446;41.490;22.098;2023-03-20T07:08:43;18.50;;;10.90;;
70825;SDS011;58446;41.490;22.098;2023-03-20T07:11:09;19.92;;;11.15;;
70825;SDS011;58446;41.490;22.098;2023-03-20T07:13:35;19.97;;;12.27;;
70825;SDS011;58446;41.490;22.098;2023-03-20T07:16:01;17.75;;;10.85;;
70825;SDS011;58446;41.490;22.098;2023-03-20T07:18:27;19.98;;;11.95;;
70825;SDS011;58446;41.490;22.098;2023-03-20T07:20:53;21.00;;;11.73;;
70825;SDS011;58446;41.490;22.098;2023-03-20T07:23:24;16.45;;;10.57;;
70825;SDS011;58446;41.490;22.098;2023-03-20T07:25:50;17.73;;;12.50;;
70825;SDS011;58446;41.490;22.098;2023-03-20T07:28:15;19.00;;;11.88;;
70825;SDS011;58446;41.490;22.098;2023-03-20T07:30:41;14.77;;;9.77;;
70825;SDS011;58446;41.490;22.098;2023-03-20T07:33:07;14.43;;;9.27;;
70825;SDS011;58446;41.490;22.098;2023-03-20T07:35:33;15.98;;;9.85;;
70825;SDS011;58446;41.490;22.098;2023-03-20T07:37:58;16.00;;;10.37;;
70825;SDS011;58446;41.490;22.098;2023-03-20T07:40:24;14.82;;;9.82;;
70825;SDS011;58446;41.490;22.098;2023-03-20T07:42:50;13.83;;;9.67;;
70825;SDS011;58446;41.490;22.098;2023-03-20T07:45:16;13.13;;;8.48;;
70825;SDS011;58446;41.490;22.098;2023-03-20T07:47:42;15.27;;;9.25;;
70825;SDS011;58446;41.490;22.098;2023-03-20T07:50:12;16.00;;;9.50;;
70825;SDS011;58446;41.490;22.098;2023-03-20T07:52:38;16.77;;;11.68;;
70825;SDS011;58446;41.490;22.098;2023-03-20T07:55:04;15.30;;;9.73;;
70825;SDS011;58446;41.490;22.098;2023-03-20T07:57:30;15.80;;;9.57;;
70825;SDS011;58446;41.490;22.098;2023-03-20T07:59:56;13.83;;;8.17;;
70825;SDS011;58446;41.490;22.098;2023-03-20T08:02:21;12.23;;;8.25;;
70825;SDS011;58446;41.490;22.098;2023-03-20T08:04:47;14.33;;;8.40;;
70825;SDS011;58446;41.490;22.098;2023-03-20T08:07:13;12.05;;;8.05;;
70825;SDS011;58446;41.490;22.098;2023-03-20T08:09:39;18.50;;;12.30;;
70825;SDS011;58446;41.490;22.098;2023-03-20T08:12:05;18.98;;;12.27;;
70825;SDS011;58446;41.490;22.098;2023-03-20T08:14:31;17.95;;;12.15;;
70825;SDS011;58446;41.490;22.098;2023-03-20T08:16:59;19.65;;;13.18;;
70825;SDS011;58446;41.490;22.098;2023-03-20T08:19:25;23.65;;;12.90;;
70825;SDS011;58446;41.490;22.098;2023-03-20T08:21:51;16.43;;;10.30;;
70825;SDS011;58446;41.490;22.098;2023-03-20T08:24:16;16.63;;;11.55;;
70825;SDS011;58446;41.490;22.098;2023-03-20T08:26:42;17.87;;;11.07;;
70825;SDS011;58446;41.490;22.098;2023-03-20T08:29:08;18.55;;;11.40;;
70825;SDS011;58446;41.490;22.098;2023-03-20T08:31:34;16.87;;;10.47;;
70825;SDS011;58446;41.490;22.098;2023-03-20T08:33:59;17.73;;;11.15;;
70825;SDS011;58446;41.490;22.098;2023-03-20T08:36:25;15.97;;;9.63;;
70825;SDS011;58446;41.490;22.098;2023-03-20T08:38:51;15.07;;;9.88;;
70825;SDS011;58446;41.490;22.098;2023-03-20T08:41:17;14.17;;;8.40;;
70825;SDS011;58446;41.490;22.098;2023-03-20T08:43:43;15.10;;;8.93;;
70825;SDS011;58446;41.490;22.098;2023-03-20T08:46:09;14.25;;;8.40;;
70825;SDS011;58446;41.490;22.098;2023-03-20T08:48:34;12.88;;;8.32;;
70825;SDS011;58446;41.490;22.098;2023-03-20T08:51:00;14.90;;;8.20;;
70825;SDS011;58446;41.490;22.098;2023-03-20T08:53:26;16.35;;;8.95;;
70825;SDS011;58446;41.490;22.098;2023-03-20T08:55:52;13.87;;;8.43;;
70825;SDS011;58446;41.490;22.098;2023-03-20T08:58:18;13.73;;;8.02;;
70825;SDS011;58446;41.490;22.098;2023-03-20T09:00:45;15.35;;;8.32;;
70825;SDS011;58446;41.490;22.098;2023-03-20T09:03:15;14.80;;;8.05;;
70825;SDS011;58446;41.490;22.098;2023-03-20T09:05:43;11.38;;;7.70;;
70825;SDS011;58446;41.490;22.098;2023-03-20T09:08:10;11.97;;;6.67;;
70825;SDS011;58446;41.490;22.098;2023-03-20T09:10:36;13.38;;;8.25;;
70825;SDS011;58446;41.490;22.098;2023-03-20T09:13:02;12.50;;;8.30;;
70825;SDS011;58446;41.490;22.098;2023-03-20T09:15:28;13.77;;;8.70;;
70825;SDS011;58446;41.490;22.098;2023-03-20T09:17:53;12.73;;;8.18;;
70825;SDS011;58446;41.490;22.098;2023-03-20T09:20:19;13.70;;;8.30;;
70825;SDS011;58446;41.490;22.098;2023-03-20T09:22:45;13.48;;;7.43;;
70825;SDS011;58446;41.490;22.098;2023-03-20T09:25:11;16.27;;;10.10;;
70825;SDS011;58446;41.490;22.098;2023-03-20T09:27:37;13.27;;;8.15;;
70825;SDS011;58446;41.490;22.098;2023-03-20T09:30:04;13.80;;;7.95;;
70825;SDS011;58446;41.490;22.098;2023-03-20T09:32:31;13.97;;;8.13;;
70825;SDS011;58446;41.490;22.098;2023-03-20T09:34:58;13.82;;;8.63;;
70825;SDS011;58446;41.490;22.098;2023-03-20T09:37:24;12.75;;;8.50;;
70825;SDS011;58446;41.490;22.098;2023-03-20T09:39:50;13.90;;;8.50;;
70825;SDS011;58446;41.490;22.098;2023-03-20T09:48:03;13.45;;;8.32;;
70825;SDS011;58446;41.490;22.098;2023-03-20T09:50:35;11.73;;;7.80;;
70825;SDS011;58446;41.490;22.098;2023-03-20T09:53:16;14.00;;;8.48;;
70825;SDS011;58446;41.490;22.098;2023-03-20T09:55:42;13.52;;;8.57;;
70825;SDS011;58446;41.490;22.098;2023-03-20T09:58:12;13.73;;;8.50;;
70825;SDS011;58446;41.490;22.098;2023-03-20T10:00:44;13.63;;;8.57;;
70825;SDS011;58446;41.490;22.098;2023-03-20T10:05:56;12.32;;;7.70;;
70825;SDS011;58446;41.490;22.098;2023-03-20T10:08:29;12.95;;;8.27;;
70825;SDS011;58446;41.490;22.098;2023-03-20T10:16:44;17.77;;;9.97;;
70825;SDS011;58446;41.490;22.098;2023-03-20T10:19:29;13.77;;;8.60;;
70825;SDS011;58446;41.490;22.098;2023-03-20T10:22:21;14.05;;;8.38;;
70825;SDS011;58446;41.490;22.098;2023-03-20T10:24:59;15.23;;;9.07;;
70825;SDS011;58446;41.490;22.098;2023-03-20T10:27:33;14.73;;;8.25;;
70825;SDS011;58446;41.490;22.098;2023-03-20T10:41:03;13.57;;;7.73;;
70825;SDS011;58446;41.490;22.098;2023-03-20T10:43:38;12.60;;;7.50;;
70825;SDS011;58446;41.490;22.098;2023-03-20T10:51:04;11.17;;;7.73;;
70825;SDS011;58446;41.490;22.098;2023-03-20T10:53:51;15.25;;;6.97;;
70825;SDS011;58446;41.490;22.098;2023-03-20T10:58:46;11.63;;;7.97;;
70825;SDS011;58446;41.490;22.098;2023-03-20T11:01:23;13.40;;;8.40;;
70825;SDS011;58446;41.490;22.098;2023-03-20T11:03:48;11.73;;;7.57;;
70825;SDS011;58446;41.490;22.098;2023-03-20T11:06:16;11.80;;;7.45;;
70825;SDS011;58446;41.490;22.098;2023-03-20T11:08:50;13.63;;;8.18;;
70825;SDS011;58446;41.490;22.098;2023-03-20T11:11:35;12.30;;;7.77;;
70825;SDS011;58446;41.490;22.098;2023-03-20T11:14:19;14.85;;;8.77;;
70825;SDS011;58446;41.490;22.098;2023-03-20T11:16:47;11.23;;;6.93;;
70825;SDS011;58446;41.490;22.098;2023-03-20T11:19:15;11.65;;;6.72;;
70825;SDS011;58446;41.490;22.098;2023-03-20T11:21:52;13.55;;;7.40;;
70825;SDS011;58446;41.490;22.098;2023-03-20T11:24:25;11.20;;;7.37;;
70825;SDS011;58446;41.490;22.098;2023-03-20T11:27:04;11.27;;;7.32;;
70825;SDS011;58446;41.490;22.098;2023-03-20T11:29:49;10.48;;;6.80;;
70825;SDS011;58446;41.490;22.098;2023-03-20T11:35:19;11.80;;;7.43;;
70825;SDS011;58446;41.490;22.098;2023-03-20T11:38:05;9.33;;;6.40;;
70825;SDS011;58446;41.490;22.098;2023-03-20T11:40:43;9.98;;;6.70;;
70825;SDS011;58446;41.490;22.098;2023-03-20T11:43:23;10.18;;;6.45;;
70825;SDS011;58446;41.490;22.098;2023-03-20T11:45:58;9.60;;;5.43;;
70825;SDS011;58446;41.490;22.098;2023-03-20T11:51:08;10.40;;;5.87;;
70825;SDS011;58446;41.490;22.098;2023-03-20T11:53:49;8.75;;;6.00;;
70825;SDS011;58446;41.490;22.098;2023-03-20T11:56:23;10.88;;;5.78;;
70825;SDS011;58446;41.490;22.098;2023-03-20T12:01:42;9.13;;;6.10;;
70825;SDS011;58446;41.490;22.098;2023-03-20T12:04:30;9.90;;;6.00;;
70825;SDS011;58446;41.490;22.098;2023-03-20T12:06:58;9.65;;;5.80;;
70825;SDS011;58446;41.490;22.098;2023-03-20T12:17:41;10.00;;;6.00;;
70825;SDS011;58446;41.490;22.098;2023-03-20T12:23:10;9.45;;;5.43;;
70825;SDS011;58446;41.490;22.098;2023-03-20T12:28:42;10.70;;;6.40;;
70825;SDS011;58446;41.490;22.098;2023-03-20T12:31:24;10.90;;;6.43;;
70825;SDS011;58446;41.490;22.098;2023-03-20T12:33:59;10.23;;;5.57;;
70825;SDS011;58446;41.490;22.098;2023-03-20T12:36:38;10.10;;;5.35;;
70825;SDS011;58446;41.490;22.098;2023-03-20T12:39:11;8.73;;;5.70;;
70825;SDS011;58446;41.490;22.098;2023-03-20T12:41:45;10.38;;;6.35;;
70825;SDS011;58446;41.490;22.098;2023-03-20T12:47:07;12.10;;;6.00;;
70825;SDS011;58446;41.490;22.098;2023-03-20T12:50:01;9.57;;;6.15;;
70825;SDS011;58446;41.490;22.098;2023-03-20T12:52:39;11.00;;;5.95;;
70825;SDS011;58446;41.490;22.098;2023-03-20T12:55:24;10.30;;;5.80;;
70825;SDS011;58446;41.490;22.098;2023-03-20T13:03:55;9.85;;;6.10;;
70825;SDS011;58446;41.490;22.098;2023-03-20T13:09:24;9.18;;;5.72;;
70825;SDS011;58446;41.490;22.098;2023-03-20T13:15:29;8.82;;;5.53;;
70825;SDS011;58446;41.490;22.098;2023-03-20T13:20:59;13.27;;;7.05;;
70825;SDS011;58446;41.490;22.098;2023-03-20T13:23:32;10.25;;;6.55;;
70825;SDS011;58446;41.490;22.098;2023-03-20T13:29:01;9.38;;;5.53;;
70825;SDS011;58446;41.490;22.098;2023-03-20T13:34:35;10.30;;;6.68;;
70825;SDS011;58446;41.490;22.098;2023-03-20T13:37:08;9.15;;;6.55;;
70825;SDS011;58446;41.490;22.098;2023-03-20T13:42:28;11.32;;;6.20;;
70825;SDS011;58446;41.490;22.098;2023-03-20T13:45:02;9.43;;;5.72;;
70825;SDS011;58446;41.490;22.098;2023-03-20T13:47:43;9.73;;;5.88;;
70825;SDS011;58446;41.490;22.098;2023-03-20T13:50:22;12.02;;;6.80;;
70825;SDS011;58446;41.490;22.098;2023-03-20T13:53:09;9.67;;;6.17;;
70825;SDS011;58446;41.490;22.098;2023-03-20T13:55:44;9.98;;;6.18;;
70825;SDS011;58446;41.490;22.098;2023-03-20T13:58:26;10.32;;;5.90;;
70825;SDS011;58446;41.490;22.098;2023-03-20T14:03:49;10.63;;;5.85;;
70825;SDS011;58446;41.490;22.098;2023-03-20T14:08:54;9.98;;;6.03;;
70825;SDS011;58446;41.490;22.098;2023-03-20T14:13:55;10.07;;;6.53;;
70825;SDS011;58446;41.490;22.098;2023-03-20T14:16:26;11.23;;;7.22;;
70825;SDS011;58446;41.490;22.098;2023-03-20T14:21:48;8.60;;;6.00;;
70825;SDS011;58446;41.490;22.098;2023-03-20T14:24:17;11.18;;;6.55;;
70825;SDS011;58446;41.490;22.098;2023-03-20T14:26:54;9.40;;;6.10;;
70825;SDS011;58446;41.490;22.098;2023-03-20T14:34:50;8.57;;;6.53;;
70825;SDS011;58446;41.490;22.098;2023-03-20T14:37:37;9.25;;;5.90;;
70825;SDS011;58446;41.490;22.098;2023-03-20T14:40:21;9.23;;;6.60;;
70825;SDS011;58446;41.490;22.098;2023-03-20T14:42:54;9.18;;;6.40;;
70825;SDS011;58446;41.490;22.098;2023-03-20T14:53:15;7.73;;;4.30;;
70825;SDS011;58446;41.490;22.098;2023-03-20T15:03:46;8.53;;;4.40;;
70825;SDS011;58446;41.490;22.098;2023-03-20T15:06:16;8.57;;;4.55;;
70825;SDS011;58446;41.490;22.098;2023-03-20T15:11:31;12.77;;;8.95;;
70825;SDS011;58446;41.490;22.098;2023-03-20T15:13:58;12.97;;;8.60;;
70825;SDS011;58446;41.490;22.098;2023-03-20T15:16:30;10.02;;;7.15;;
70825;SDS011;58446;41.490;22.098;2023-03-20T15:18:57;10.98;;;5.85;;
70825;SDS011;58446;41.490;22.098;2023-03-20T15:21:33;9.15;;;5.57;;
70825;SDS011;58446;41.490;22.098;2023-03-20T15:24:01;11.48;;;6.75;;
70825;SDS011;58446;41.490;22.098;2023-03-20T15:26:27;12.13;;;8.00;;
70825;SDS011;58446;41.490;22.098;2023-03-20T15:29:27;12.25;;;8.45;;
70825;SDS011;58446;41.490;22.098;2023-03-20T15:31:50;15.82;;;9.23;;
70825;SDS011;58446;41.490;22.098;2023-03-20T15:34:21;8.38;;;4.97;;
70825;SDS011;58446;41.490;22.098;2023-03-20T15:36:52;9.73;;;6.17;;
70825;SDS011;58446;41.490;22.098;2023-03-20T15:39:24;17.98;;;8.73;;
70825;SDS011;58446;41.490;22.098;2023-03-20T15:41:53;12.77;;;7.45;;
70825;SDS011;58446;41.490;22.098;2023-03-20T15:44:22;13.35;;;8.00;;
70825;SDS011;58446;41.490;22.098;2023-03-20T15:46:54;9.13;;;5.53;;
70825;SDS011;58446;41.490;22.098;2023-03-20T15:49:25;16.47;;;6.40;;
70825;SDS011;58446;41.490;22.098;2023-03-20T15:51:54;13.63;;;6.20;;
70825;SDS011;58446;41.490;22.098;2023-03-20T15:54:22;22.45;;;12.15;;
70825;SDS011;58446;41.490;22.098;2023-03-20T15:56:49;9.95;;;5.30;;
70825;SDS011;58446;41.490;22.098;2023-03-20T15:59:18;10.85;;;6.55;;
70825;SDS011;58446;41.490;22.098;2023-03-20T16:01:47;16.93;;;8.33;;
70825;SDS011;58446;41.490;22.098;2023-03-20T16:04:16;11.20;;;5.95;;
70825;SDS011;58446;41.490;22.098;2023-03-20T16:06:54;8.45;;;5.43;;
70825;SDS011;58446;41.490;22.098;2023-03-20T16:09:24;11.38;;;6.32;;
70825;SDS011;58446;41.490;22.098;2023-03-20T16:12:01;13.75;;;8.00;;
70825;SDS011;58446;41.490;22.098;2023-03-20T16:14:28;25.17;;;13.47;;
70825;SDS011;58446;41.490;22.098;2023-03-20T16:16:57;13.77;;;8.32;;
70825;SDS011;58446;41.490;22.098;2023-03-20T16:19:25;16.75;;;10.65;;
70825;SDS011;58446;41.490;22.098;2023-03-20T16:22:06;26.67;;;14.70;;
70825;SDS011;58446;41.490;22.098;2023-03-20T16:24:40;18.92;;;10.25;;
70825;SDS011;58446;41.490;22.098;2023-03-20T16:27:11;15.43;;;9.83;;
70825;SDS011;58446;41.490;22.098;2023-03-20T16:29:42;25.58;;;14.23;;
70825;SDS011;58446;41.490;22.098;2023-03-20T16:32:16;11.57;;;7.40;;
70825;SDS011;58446;41.490;22.098;2023-03-20T16:34:53;14.52;;;10.35;;
70825;SDS011;58446;41.490;22.098;2023-03-20T16:37:25;10.18;;;6.60;;
70825;SDS011;58446;41.490;22.098;2023-03-20T16:42:36;8.55;;;5.93;;
70825;SDS011;58446;41.490;22.098;2023-03-20T16:45:03;9.35;;;6.57;;
70825;SDS011;58446;41.490;22.098;2023-03-20T16:47:34;9.27;;;5.47;;
70825;SDS011;58446;41.490;22.098;2023-03-20T16:50:11;9.55;;;6.55;;
70825;SDS011;58446;41.490;22.098;2023-03-20T16:52:57;10.20;;;5.97;;
70825;SDS011;58446;41.490;22.098;2023-03-20T16:55:25;10.77;;;6.45;;
70825;SDS011;58446;41.490;22.098;2023-03-20T16:58:01;14.93;;;8.48;;
70825;SDS011;58446;41.490;22.098;2023-03-20T17:00:31;30.17;;;15.03;;
70825;SDS011;58446;41.490;22.098;2023-03-20T17:03:23;21.00;;;13.35;;
70825;SDS011;58446;41.490;22.098;2023-03-20T17:06:04;16.95;;;11.60;;
70825;SDS011;58446;41.490;22.098;2023-03-20T17:08:36;15.88;;;9.63;;
70825;SDS011;58446;41.490;22.098;2023-03-20T17:11:09;17.92;;;13.25;;
70825;SDS011;58446;41.490;22.098;2023-03-20T17:13:37;21.67;;;15.63;;